createdAt,value
2018-12-08T00:00:03.905Z,99745.63
2018-12-08T00:00:35.021Z,99744.77
2018-12-08T00:01:06.132Z,99745.30
2018-12-08T00:01:37.236Z,99739.73
2018-12-08T00:02:08.366Z,99744.50
2018-12-08T00:02:39.497Z,99743.67
2018-12-08T00:03:10.625Z,99744.14
2018-12-08T00:03:41.781Z,99748.44
2018-12-08T00:04:12.896Z,99742.03
2018-12-08T00:04:44.001Z,99745.91
2018-12-08T00:05:15.120Z,99742.91
2018-12-08T00:05:46.249Z,99745.02
2018-12-08T00:06:18.228Z,99753.55
2018-12-08T00:06:49.354Z,99751.82
2018-12-08T00:07:20.460Z,99752.67
2018-12-08T00:07:51.586Z,99746.34
2018-12-08T00:08:22.700Z,99745.91
2018-12-08T00:08:53.861Z,99751.03
2018-12-08T00:09:25.027Z,99745.09
2018-12-08T00:09:56.154Z,99746.34
2018-12-08T00:10:27.287Z,99747.63
2018-12-08T00:10:58.396Z,99742.91
2018-12-08T00:11:30.574Z,99746.77
2018-12-08T00:12:01.694Z,99745.09
2018-12-08T00:12:32.816Z,99749.76
2018-12-08T00:13:03.934Z,99748.45
2018-12-08T00:13:35.044Z,99739.89
2018-12-08T00:14:06.193Z,99740.34
2018-12-08T00:14:37.354Z,99746.74
2018-12-08T00:15:08.464Z,99744.19
2018-12-08T00:15:39.567Z,99731.39
2018-12-08T00:16:10.685Z,99736.53
2018-12-08T00:16:41.799Z,99740.80
2018-12-08T00:17:12.913Z,99739.06
2018-12-08T00:17:44.025Z,99739.89
2018-12-08T00:18:15.145Z,99737.31
2018-12-08T00:18:46.260Z,99739.85
2018-12-08T00:19:17.375Z,99737.69
2018-12-08T00:19:48.533Z,99735.11
2018-12-08T00:20:19.636Z,99738.08
2018-12-08T00:20:50.788Z,99738.08
2018-12-08T00:21:21.912Z,99741.50
2018-12-08T00:21:53.021Z,99738.14
2018-12-08T00:22:24.128Z,99736.05
2018-12-08T00:22:55.254Z,99733.95
2018-12-08T00:23:26.377Z,99733.11
2018-12-08T00:23:57.500Z,99736.13
2018-12-08T00:24:28.628Z,99738.25
2018-12-08T00:24:59.730Z,99727.63
2018-12-08T00:25:30.884Z,99729.75
2018-12-08T00:26:02.033Z,99732.33
2018-12-08T00:26:33.161Z,99729.34
2018-12-08T00:27:04.278Z,99737.43
2018-12-08T00:27:35.392Z,99734.47
2018-12-08T00:28:06.674Z,99731.91
2018-12-08T00:28:37.873Z,99732.73
2018-12-08T00:29:08.984Z,99736.98
2018-12-08T00:29:40.109Z,99735.24
2018-12-08T00:30:11.270Z,99736.50
2018-12-08T00:30:42.437Z,99739.49
2018-12-08T00:31:13.560Z,99733.09
2018-12-08T00:31:44.676Z,99731.41
2018-12-08T00:32:15.789Z,99732.29
2018-12-08T00:32:46.901Z,99734.02
2018-12-08T00:33:18.017Z,99732.69
2018-12-08T00:33:49.128Z,99730.98
2018-12-08T00:34:20.243Z,99728.80
2018-12-08T00:34:51.357Z,99729.23
2018-12-08T00:35:22.468Z,99727.52
2018-12-08T00:35:53.616Z,99721.97
2018-12-08T00:36:24.725Z,99724.14
2018-12-08T00:36:55.835Z,99725.41
2018-12-08T00:37:26.945Z,99723.70
2018-12-08T00:37:58.070Z,99724.59
2018-12-08T00:38:29.185Z,99724.98
2018-12-08T00:39:00.306Z,99726.27
2018-12-08T00:39:31.416Z,99722.86
2018-12-08T00:40:02.566Z,99723.70
2018-12-08T00:40:33.679Z,99717.30
2018-12-08T00:41:04.823Z,99717.75
2018-12-08T00:41:35.930Z,99719.03
2018-12-08T00:42:07.041Z,99721.14
2018-12-08T00:42:38.153Z,99723.23
2018-12-08T00:43:09.269Z,99723.25
2018-12-08T00:43:40.386Z,99724.97
2018-12-08T00:44:11.492Z,99730.10
2018-12-08T00:44:42.602Z,99727.52
2018-12-08T00:45:13.716Z,99728.42
2018-12-08T00:45:44.827Z,99729.28
2018-12-08T00:46:15.977Z,99728.45
2018-12-08T00:46:47.094Z,99732.29
2018-12-08T00:47:18.207Z,99735.30
2018-12-08T00:47:49.354Z,99731.45
2018-12-08T00:48:20.467Z,99726.72
2018-12-08T00:48:51.580Z,99727.98
2018-12-08T00:49:22.731Z,99733.00
2018-12-08T00:49:53.857Z,99730.42
2018-12-08T00:50:24.982Z,99720.16
2018-12-08T00:50:56.088Z,99723.12
2018-12-08T00:51:27.245Z,99716.24
2018-12-08T00:51:58.369Z,99718.45
2018-12-08T00:52:29.503Z,99715.06
2018-12-08T00:53:01.548Z,99714.61
2018-12-08T00:53:32.665Z,99715.91
2018-12-08T00:54:03.788Z,99706.50
2018-12-08T00:54:34.908Z,99707.41
2018-12-08T00:55:06.034Z,99711.69
2018-12-08T00:55:37.149Z,99712.14
2018-12-08T00:56:08.262Z,99711.31
2018-12-08T00:56:40.565Z,99707.48
2018-12-08T00:57:11.674Z,99710.91
2018-12-08T00:57:42.784Z,99706.22
2018-12-08T00:58:13.929Z,99706.61
2018-12-08T00:58:45.036Z,99709.63
2018-12-08T00:59:16.160Z,99710.92
2018-12-08T00:59:47.288Z,99710.51
2018-12-08T01:00:18.424Z,99714.34
2018-12-08T01:00:49.543Z,99710.05
2018-12-08T01:01:20.654Z,99701.92
2018-12-08T01:01:51.799Z,99700.62
2018-12-08T01:02:22.926Z,99706.57
2018-12-08T01:02:54.072Z,99701.47
2018-12-08T01:03:25.524Z,99697.99
2018-12-08T01:03:56.657Z,99701.38
2018-12-08T01:04:27.806Z,99696.71
2018-12-08T01:04:58.915Z,99695.05
2018-12-08T01:05:30.025Z,99690.33
2018-12-08T01:06:01.138Z,99692.11
2018-12-08T01:06:32.245Z,99693.81
2018-12-08T01:07:03.363Z,99687.83
2018-12-08T01:07:34.484Z,99695.98
2018-12-08T01:08:05.640Z,99695.15
2018-12-08T01:08:36.761Z,99695.56
2018-12-08T01:09:07.903Z,99694.72
2018-12-08T01:09:39.033Z,99697.30
2018-12-08T01:10:10.161Z,99689.22
2018-12-08T01:10:41.268Z,99693.89
2018-12-08T01:11:12.374Z,99693.89
2018-12-08T01:11:43.488Z,99692.61
2018-12-08T01:12:14.613Z,99687.94
2018-12-08T01:12:45.730Z,99684.50
2018-12-08T01:13:16.873Z,99685.38
2018-12-08T01:13:47.984Z,99684.95
2018-12-08T01:14:19.097Z,99682.41
2018-12-08T01:14:50.214Z,99679.00
2018-12-08T01:15:21.328Z,99679.43
2018-12-08T01:15:52.443Z,99679.36
2018-12-08T01:16:23.561Z,99681.87
2018-12-08T01:16:54.682Z,99674.14
2018-12-08T01:17:25.780Z,99674.11
2018-12-08T01:17:57.925Z,99677.52
2018-12-08T01:18:29.029Z,99674.11
2018-12-08T01:19:00.189Z,99672.38
2018-12-08T01:19:32.080Z,99670.63
2018-12-08T01:20:03.218Z,99669.34
2018-12-08T01:20:34.327Z,99668.89
2018-12-08T01:21:05.433Z,99664.66
2018-12-08T01:21:36.604Z,99666.33
2018-12-08T01:22:07.717Z,99666.71
2018-12-08T01:22:38.828Z,99637.81
2018-12-08T01:23:09.947Z,99666.67
2018-12-08T01:23:41.074Z,99664.97
2018-12-08T01:24:12.183Z,99660.61
2018-12-08T01:24:44.228Z,99659.67
2018-12-08T01:25:15.543Z,99655.75
2018-12-08T01:25:46.654Z,99656.55
2018-12-08T01:26:17.785Z,99650.52
2018-12-08T01:26:48.940Z,99653.05
2018-12-08T01:27:20.066Z,99653.05
2018-12-08T01:27:51.180Z,99648.80
2018-12-08T01:28:22.304Z,99646.23
2018-12-08T01:28:53.426Z,99649.70
2018-12-08T01:29:24.577Z,99642.91
2018-12-08T01:29:55.691Z,99646.31
2018-12-08T01:30:26.825Z,99648.84
2018-12-08T01:30:57.936Z,99646.31
2018-12-08T01:31:29.049Z,99651.90
2018-12-08T01:32:00.198Z,99644.66
2018-12-08T01:32:31.309Z,99651.05
2018-12-08T01:33:02.414Z,99647.23
2018-12-08T01:33:33.518Z,99648.49
2018-12-08T01:34:04.620Z,99651.07
2018-12-08T01:34:35.735Z,99652.80
2018-12-08T01:35:06.852Z,99649.77
2018-12-08T01:35:37.965Z,99646.77
2018-12-08T01:36:09.079Z,99650.52
2018-12-08T01:36:40.192Z,99647.09
2018-12-08T01:37:11.352Z,99647.92
2018-12-08T01:37:42.456Z,99647.84
2018-12-08T01:38:13.561Z,99647.80
2018-12-08T01:38:44.703Z,99645.64
2018-12-08T01:39:15.816Z,99643.89
2018-12-08T01:39:46.919Z,99635.73
2018-12-08T01:40:18.874Z,99640.84
2018-12-08T01:40:50.006Z,99640.82
2018-12-08T01:41:21.120Z,99642.45
2018-12-08T01:41:52.229Z,99638.16
2018-12-08T01:42:23.347Z,99636.44
2018-12-08T01:42:54.474Z,99639.89
2018-12-08T01:43:25.588Z,99633.88
2018-12-08T01:43:56.723Z,99633.05
2018-12-08T01:44:27.843Z,99631.38
2018-12-08T01:44:58.952Z,99632.66
2018-12-08T01:45:30.071Z,99630.45
2018-12-08T01:46:01.183Z,99634.66
2018-12-08T01:46:32.287Z,99633.36
2018-12-08T01:47:03.401Z,99635.03
2018-12-08T01:47:34.526Z,99631.55
2018-12-08T01:48:05.644Z,99633.69
2018-12-08T01:48:36.807Z,99634.98
2018-12-08T01:49:07.914Z,99633.81
2018-12-08T01:49:39.024Z,99630.83
2018-12-08T01:50:10.131Z,99631.20
2018-12-08T01:50:41.236Z,99631.17
2018-12-08T01:51:12.393Z,99631.61
2018-12-08T01:51:43.509Z,99629.00
2018-12-08T01:52:14.616Z,99628.58
2018-12-08T01:52:45.731Z,99633.23
2018-12-08T01:53:16.851Z,99628.97
2018-12-08T01:53:48.003Z,99628.58
2018-12-08T01:54:19.116Z,99628.95
2018-12-08T01:54:50.228Z,99625.03
2018-12-08T01:55:21.340Z,99625.90
2018-12-08T01:55:52.471Z,99628.40
2018-12-08T01:56:23.584Z,99622.46
2018-12-08T01:56:54.736Z,99619.45
2018-12-08T01:57:25.849Z,99624.14
2018-12-08T01:57:56.968Z,99617.34
2018-12-08T01:58:28.104Z,99618.17
2018-12-08T01:58:59.269Z,99620.31
2018-12-08T01:59:30.393Z,99613.92
2018-12-08T02:00:01.512Z,99617.34
2018-12-08T02:00:32.647Z,99619.08
2018-12-08T02:01:03.760Z,99615.67
2018-12-08T02:01:34.912Z,99613.06
2018-12-08T02:02:06.031Z,99612.66
2018-12-08T02:02:37.149Z,99611.38
2018-12-08T02:03:08.310Z,99613.06
2018-12-08T02:03:39.420Z,99608.38
2018-12-08T02:04:10.532Z,99607.12
2018-12-08T02:04:41.649Z,99603.73
2018-12-08T02:05:12.761Z,99604.64
2018-12-08T02:05:43.878Z,99611.08
2018-12-08T02:06:14.997Z,99602.95
2018-12-08T02:06:46.123Z,99605.13
2018-12-08T02:07:17.233Z,99607.71
2018-12-08T02:07:48.345Z,99603.50
2018-12-08T02:08:19.488Z,99608.27
2018-12-08T02:08:50.606Z,99603.98
2018-12-08T02:09:21.750Z,99608.27
2018-12-08T02:09:52.864Z,99606.53
2018-12-08T02:10:24.013Z,99602.69
2018-12-08T02:10:55.119Z,99606.98
2018-12-08T02:11:26.228Z,99601.87
2018-12-08T02:11:57.350Z,99601.87
2018-12-08T02:12:28.554Z,99596.30
2018-12-08T02:12:59.712Z,99602.69
2018-12-08T02:13:30.832Z,99600.14
2018-12-08T02:14:02.000Z,99602.24
2018-12-08T02:14:33.115Z,99598.42
2018-12-08T02:15:04.236Z,99599.70
2018-12-08T02:15:35.357Z,99596.33
2018-12-08T02:16:06.492Z,99598.03
2018-12-08T02:16:37.598Z,99588.97
2018-12-08T02:17:08.708Z,99597.84
2018-12-08T02:17:39.829Z,99592.25
2018-12-08T02:18:10.980Z,99596.16
2018-12-08T02:18:42.093Z,99593.17
2018-12-08T02:19:13.205Z,99597.91
2018-12-08T02:19:44.318Z,99593.25
2018-12-08T02:20:15.467Z,99594.12
2018-12-08T02:20:46.579Z,99593.27
2018-12-08T02:21:17.684Z,99591.56
2018-12-08T02:21:48.843Z,99587.78
2018-12-08T02:22:19.962Z,99588.63
2018-12-08T02:22:51.073Z,99588.63
2018-12-08T02:23:22.182Z,99589.08
2018-12-08T02:23:53.300Z,99583.52
2018-12-08T02:24:24.411Z,99586.09
2018-12-08T02:24:55.525Z,99586.56
2018-12-08T02:25:26.754Z,99585.73
2018-12-08T02:25:57.890Z,99584.44
2018-12-08T02:26:29.028Z,99583.16
2018-12-08T02:27:00.167Z,99589.13
2018-12-08T02:27:31.317Z,99581.87
2018-12-08T02:28:02.437Z,99586.55
2018-12-08T02:28:33.553Z,99586.55
2018-12-08T02:29:04.664Z,99586.92
2018-12-08T02:29:35.772Z,99589.08
2018-12-08T02:30:06.900Z,99583.95
2018-12-08T02:30:38.013Z,99583.89
2018-12-08T02:31:09.132Z,99583.89
2018-12-08T02:31:40.235Z,99583.50
2018-12-08T02:32:11.369Z,99579.23
2018-12-08T02:32:42.526Z,99580.94
2018-12-08T02:33:13.636Z,99581.39
2018-12-08T02:33:44.764Z,99586.92
2018-12-08T02:34:15.880Z,99582.69
2018-12-08T02:34:46.989Z,99582.69
2018-12-08T02:35:18.098Z,99589.53
2018-12-08T02:35:49.218Z,99593.37
2018-12-08T02:36:20.333Z,99593.78
2018-12-08T02:36:51.441Z,99590.41
2018-12-08T02:37:22.549Z,99593.86
2018-12-08T02:37:53.717Z,99588.37
2018-12-08T02:38:24.832Z,99593.90
2018-12-08T02:38:55.964Z,99595.63
2018-12-08T02:39:27.084Z,99594.80
2018-12-08T02:39:58.207Z,99590.97
2018-12-08T02:40:29.437Z,99599.11
2018-12-08T02:41:00.592Z,99594.45
2018-12-08T02:41:31.736Z,99595.75
2018-12-08T02:42:02.852Z,99591.08
2018-12-08T02:42:33.973Z,99594.48
2018-12-08T02:43:05.180Z,99589.80
2018-12-08T02:43:36.315Z,99593.26
2018-12-08T02:44:07.468Z,99591.98
2018-12-08T02:44:38.581Z,99594.98
2018-12-08T02:45:09.716Z,99592.91
2018-12-08T02:45:40.825Z,99600.16
2018-12-08T02:46:11.944Z,99595.03
2018-12-08T02:46:43.092Z,99596.73
2018-12-08T02:47:14.220Z,99597.97
2018-12-08T02:47:45.340Z,99589.87
2018-12-08T02:48:16.524Z,99595.77
2018-12-08T02:48:47.682Z,99595.75
2018-12-08T02:49:18.789Z,99593.14
2018-12-08T02:49:49.929Z,99593.14
2018-12-08T02:50:21.039Z,99589.31
2018-12-08T02:50:52.198Z,99598.30
2018-12-08T02:51:23.344Z,99593.64
2018-12-08T02:51:54.461Z,99590.70
2018-12-08T02:52:25.570Z,99597.12
2018-12-08T02:52:56.685Z,99587.73
2018-12-08T02:53:27.810Z,99585.98
2018-12-08T02:53:59.033Z,99588.07
2018-12-08T02:54:30.320Z,99586.39
2018-12-08T02:55:01.446Z,99584.25
2018-12-08T02:55:32.565Z,99592.44
2018-12-08T02:56:03.695Z,99585.17
2018-12-08T02:56:34.814Z,99590.73
2018-12-08T02:57:05.971Z,99581.39
2018-12-08T02:57:37.086Z,99581.86
2018-12-08T02:58:08.194Z,99587.80
2018-12-08T02:58:39.306Z,99587.39
2018-12-08T02:59:10.416Z,99587.39
2018-12-08T02:59:41.537Z,99586.56
2018-12-08T03:00:12.696Z,99587.83
2018-12-08T03:00:43.813Z,99589.10
2018-12-08T03:01:14.934Z,99594.23
2018-12-08T03:01:46.050Z,99589.58
2018-12-08T03:02:17.161Z,99587.00
2018-12-08T03:02:48.281Z,99588.67
2018-12-08T03:03:19.402Z,99584.89
2018-12-08T03:03:50.522Z,99586.17
2018-12-08T03:04:21.654Z,99585.70
2018-12-08T03:04:52.775Z,99586.12
2018-12-08T03:05:24.110Z,99586.12
2018-12-08T03:05:55.266Z,99585.70
2018-12-08T03:06:26.424Z,99584.80
2018-12-08T03:06:57.536Z,99587.73
2018-12-08T03:07:28.654Z,99584.69
2018-12-08T03:07:59.801Z,99582.50
2018-12-08T03:08:30.924Z,99584.14
2018-12-08T03:09:02.045Z,99584.57
2018-12-08T03:09:33.163Z,99581.56
2018-12-08T03:10:04.272Z,99581.64
2018-12-08T03:10:35.397Z,99582.03
2018-12-08T03:11:06.495Z,99575.72
2018-12-08T03:11:37.605Z,99576.09
2018-12-08T03:12:08.751Z,99577.73
2018-12-08T03:12:39.866Z,99572.23
2018-12-08T03:13:10.968Z,99571.86
2018-12-08T03:13:42.079Z,99576.97
2018-12-08T03:14:13.236Z,99573.52
2018-12-08T03:14:44.341Z,99564.91
2018-12-08T03:15:15.459Z,99575.24
2018-12-08T03:15:46.574Z,99566.69
2018-12-08T03:16:17.681Z,99569.30
2018-12-08T03:16:48.786Z,99569.70
2018-12-08T03:17:19.887Z,99572.63
2018-12-08T03:17:50.996Z,99567.13
2018-12-08T03:18:22.139Z,99564.94
2018-12-08T03:18:53.289Z,99565.77
2018-12-08T03:19:24.397Z,99564.92
2018-12-08T03:19:55.508Z,99564.00
2018-12-08T03:20:26.623Z,99566.11
2018-12-08T03:20:57.741Z,99560.95
2018-12-08T03:21:28.849Z,99558.73
2018-12-08T03:21:59.970Z,99561.69
2018-12-08T03:22:31.145Z,99564.22
2018-12-08T03:23:02.250Z,99558.28
2018-12-08T03:23:33.366Z,99560.88
2018-12-08T03:24:04.469Z,99559.66
2018-12-08T03:24:35.582Z,99563.91
2018-12-08T03:25:06.731Z,99561.80
2018-12-08T03:25:37.852Z,99562.23
2018-12-08T03:26:08.996Z,99562.68
2018-12-08T03:26:40.145Z,99561.33
2018-12-08T03:27:11.261Z,99560.88
2018-12-08T03:27:42.376Z,99566.41
2018-12-08T03:28:13.485Z,99566.80
2018-12-08T03:28:44.595Z,99561.69
2018-12-08T03:29:15.701Z,99561.23
2018-12-08T03:29:46.937Z,99568.06
2018-12-08T03:30:18.057Z,99561.23
2018-12-08T03:30:49.172Z,99563.73
2018-12-08T03:31:20.305Z,99564.58
2018-12-08T03:31:51.482Z,99565.45
2018-12-08T03:32:22.612Z,99560.72
2018-12-08T03:32:53.742Z,99556.44
2018-12-08T03:33:25.373Z,99565.01
2018-12-08T03:33:56.482Z,99563.66
2018-12-08T03:34:27.597Z,99559.80
2018-12-08T03:34:58.722Z,99562.33
2018-12-08T03:35:29.850Z,99557.22
2018-12-08T03:36:00.957Z,99563.61
2018-12-08T03:36:32.071Z,99562.73
2018-12-08T03:37:03.215Z,99557.20
2018-12-08T03:37:34.363Z,99560.59
2018-12-08T03:38:05.473Z,99562.67
2018-12-08T03:38:36.589Z,99563.89
2018-12-08T03:39:07.707Z,99563.50
2018-12-08T03:39:38.846Z,99563.95
2018-12-08T03:40:09.973Z,99563.95
2018-12-08T03:40:41.085Z,99561.34
2018-12-08T03:41:12.198Z,99561.31
2018-12-08T03:41:43.355Z,99561.39
2018-12-08T03:42:14.463Z,99563.42
2018-12-08T03:42:45.567Z,99562.09
2018-12-08T03:43:16.699Z,99561.17
2018-12-08T03:43:47.804Z,99561.52
2018-12-08T03:44:18.915Z,99558.52
2018-12-08T03:44:50.063Z,99557.69
2018-12-08T03:45:21.177Z,99561.07
2018-12-08T03:45:52.283Z,99562.78
2018-12-08T03:46:23.397Z,99555.96
2018-12-08T03:46:54.507Z,99559.47
2018-12-08T03:47:25.632Z,99557.36
2018-12-08T03:47:56.748Z,99556.91
2018-12-08T03:48:27.873Z,99560.74
2018-12-08T03:48:58.976Z,99558.24
2018-12-08T03:49:30.089Z,99552.33
2018-12-08T03:50:01.240Z,99556.66
2018-12-08T03:50:32.364Z,99554.14
2018-12-08T03:51:03.524Z,99553.77
2018-12-08T03:51:34.637Z,99556.77
2018-12-08T03:52:06.527Z,99556.77
2018-12-08T03:52:37.636Z,99552.56
2018-12-08T03:53:08.740Z,99558.54
2018-12-08T03:53:39.858Z,99556.44
2018-12-08T03:54:10.975Z,99560.34
2018-12-08T03:54:42.097Z,99557.79
2018-12-08T03:55:13.261Z,99565.41
2018-12-08T03:55:45.019Z,99564.55
2018-12-08T03:56:16.421Z,99564.55
2018-12-08T03:56:47.541Z,99562.00
2018-12-08T03:57:19.671Z,99567.94
2018-12-08T03:57:50.795Z,99563.66
2018-12-08T03:58:21.921Z,99562.38
2018-12-08T03:58:53.043Z,99564.48
2018-12-08T03:59:24.165Z,99566.17
2018-12-08T03:59:55.276Z,99566.17
2018-12-08T04:00:26.466Z,99571.30
2018-12-08T04:00:57.583Z,99572.54
2018-12-08T04:01:28.709Z,99571.56
2018-12-08T04:01:59.830Z,99570.67
2018-12-08T04:02:30.946Z,99571.95
2018-12-08T04:03:02.094Z,99568.94
2018-12-08T04:03:33.239Z,99568.94
2018-12-08T04:04:04.351Z,99568.48
2018-12-08T04:04:35.463Z,99567.20
2018-12-08T04:05:06.583Z,99571.87
2018-12-08T04:05:37.694Z,99567.20
2018-12-08T04:06:08.806Z,99570.14
2018-12-08T04:06:39.908Z,99562.92
2018-12-08T04:07:11.027Z,99564.66
2018-12-08T04:07:42.134Z,99563.83
2018-12-08T04:08:13.272Z,99563.39
2018-12-08T04:08:44.389Z,99565.97
2018-12-08T04:09:15.498Z,99567.25
2018-12-08T04:09:46.608Z,99565.15
2018-12-08T04:10:17.725Z,99562.19
2018-12-08T04:10:48.837Z,99569.89
2018-12-08T04:11:20.042Z,99563.95
2018-12-08T04:11:51.208Z,99560.94
2018-12-08T04:12:22.335Z,99563.88
2018-12-08T04:12:53.494Z,99566.83
2018-12-08T04:13:24.602Z,99560.39
2018-12-08T04:13:55.712Z,99563.70
2018-12-08T04:14:26.832Z,99563.65
2018-12-08T04:14:57.938Z,99563.62
2018-12-08T04:15:29.108Z,99566.61
2018-12-08T04:16:00.244Z,99559.34
2018-12-08T04:16:31.353Z,99566.59
2018-12-08T04:17:02.470Z,99569.97
2018-12-08T04:17:33.577Z,99565.61
2018-12-08T04:18:04.686Z,99565.58
2018-12-08T04:18:35.797Z,99565.54
2018-12-08T04:19:06.946Z,99562.98
2018-12-08T04:19:38.072Z,99565.56
2018-12-08T04:20:09.185Z,99568.57
2018-12-08T04:20:40.325Z,99567.30
2018-12-08T04:21:11.437Z,99568.97
2018-12-08T04:21:42.574Z,99569.02
2018-12-08T04:22:13.719Z,99564.77
2018-12-08T04:22:44.833Z,99568.59
2018-12-08T04:23:15.949Z,99566.47
2018-12-08T04:23:47.053Z,99563.05
2018-12-08T04:24:18.167Z,99563.48
2018-12-08T04:24:49.274Z,99566.84
2018-12-08T04:25:20.375Z,99568.09
2018-12-08T04:25:51.517Z,99567.66
2018-12-08T04:26:22.615Z,99568.07
2018-12-08T04:26:53.723Z,99568.47
2018-12-08T04:27:24.845Z,99568.45
2018-12-08T04:27:55.996Z,99566.28
2018-12-08T04:28:27.097Z,99567.97
2018-12-08T04:28:58.203Z,99568.81
2018-12-08T04:29:29.323Z,99566.61
2018-12-08T04:30:00.434Z,99571.78
2018-12-08T04:30:32.447Z,99569.62
2018-12-08T04:31:03.670Z,99570.07
2018-12-08T04:31:34.776Z,99565.39
2018-12-08T04:32:05.902Z,99573.53
2018-12-08T04:32:37.014Z,99572.28
2018-12-08T04:33:08.123Z,99573.19
2018-12-08T04:33:39.275Z,99570.66
2018-12-08T04:34:10.388Z,99573.23
2018-12-08T04:34:41.503Z,99570.30
2018-12-08T04:35:12.623Z,99568.57
2018-12-08T04:35:43.742Z,99574.55
2018-12-08T04:36:14.863Z,99571.12
2018-12-08T04:36:46.000Z,99572.80
2018-12-08T04:37:17.107Z,99572.38
2018-12-08T04:37:48.221Z,99569.77
2018-12-08T04:38:19.334Z,99566.34
2018-12-08T04:38:50.452Z,99571.05
2018-12-08T04:39:21.571Z,99571.50
2018-12-08T04:39:52.690Z,99569.83
2018-12-08T04:40:23.802Z,99567.21
2018-12-08T04:40:54.912Z,99568.07
2018-12-08T04:41:26.024Z,99564.66
2018-12-08T04:41:57.171Z,99560.42
2018-12-08T04:42:28.279Z,99559.17
2018-12-08T04:42:59.386Z,99563.01
2018-12-08T04:43:30.492Z,99562.58
2018-12-08T04:44:01.611Z,99562.20
2018-12-08T04:44:32.730Z,99555.39
2018-12-08T04:45:03.872Z,99559.67
2018-12-08T04:45:35.207Z,99553.73
2018-12-08T04:46:06.323Z,99558.84
2018-12-08T04:46:37.438Z,99557.20
2018-12-08T04:47:08.600Z,99556.37
2018-12-08T04:47:39.701Z,99559.77
2018-12-08T04:48:11.911Z,99563.62
2018-12-08T04:48:43.021Z,99558.13
2018-12-08T04:49:14.121Z,99556.41
2018-12-08T04:49:45.225Z,99554.69
2018-12-08T04:50:16.330Z,99553.01
2018-12-08T04:50:47.437Z,99557.69
2018-12-08T04:51:18.548Z,99555.56
2018-12-08T04:51:49.656Z,99558.97
2018-12-08T04:52:23.833Z,99558.06
2018-12-08T04:52:54.994Z,99558.13
2018-12-08T04:53:26.118Z,99556.78
2018-12-08T04:53:57.241Z,99557.22
2018-12-08T04:54:28.488Z,99552.91
2018-12-08T04:54:59.618Z,99559.30
2018-12-08T04:55:30.729Z,99558.02
2018-12-08T04:56:01.880Z,99560.95
2018-12-08T04:56:33.030Z,99556.66
2018-12-08T04:57:04.182Z,99556.72
2018-12-08T04:57:35.327Z,99558.02
2018-12-08T04:58:06.436Z,99557.64
2018-12-08T04:58:37.626Z,99556.77
2018-12-08T04:59:08.785Z,99558.92
2018-12-08T04:59:39.893Z,99554.19
2018-12-08T05:00:11.002Z,99556.74
2018-12-08T05:00:42.112Z,99558.02
2018-12-08T05:01:13.216Z,99556.74
2018-12-08T05:01:44.319Z,99554.64
2018-12-08T05:02:15.455Z,99555.91
2018-12-08T05:02:46.569Z,99552.53
2018-12-08T05:03:17.683Z,99553.36
2018-12-08T05:03:48.796Z,99554.19
2018-12-08T05:04:19.950Z,99552.06
2018-12-08T05:04:51.070Z,99551.61
2018-12-08T05:05:22.193Z,99551.55
2018-12-08T05:05:53.303Z,99555.36
2018-12-08T05:06:24.410Z,99549.41
2018-12-08T05:06:55.566Z,99544.22
2018-12-08T05:07:26.678Z,99554.02
2018-12-08T05:07:57.789Z,99551.01
2018-12-08T05:08:28.903Z,99556.12
2018-12-08T05:09:00.003Z,99552.29
2018-12-08T05:09:31.099Z,99554.41
2018-12-08T05:10:02.213Z,99547.18
2018-12-08T05:10:33.334Z,99548.45
2018-12-08T05:11:04.440Z,99552.29
2018-12-08T05:11:35.545Z,99553.11
2018-12-08T05:12:06.692Z,99554.39
2018-12-08T05:12:37.804Z,99555.22
2018-12-08T05:13:08.905Z,99552.61
2018-12-08T05:13:40.017Z,99555.22
2018-12-08T05:14:11.118Z,99554.77
2018-12-08T05:14:42.229Z,99552.56
2018-12-08T05:15:14.342Z,99554.72
2018-12-08T05:15:45.448Z,99555.17
2018-12-08T05:16:16.550Z,99556.00
2018-12-08T05:16:47.660Z,99552.08
2018-12-08T05:17:18.799Z,99552.08
2018-12-08T05:17:49.908Z,99552.48
2018-12-08T05:18:21.007Z,99551.61
2018-12-08T05:18:52.117Z,99554.16
2018-12-08T05:19:23.226Z,99553.23
2018-12-08T05:19:54.359Z,99555.73
2018-12-08T05:20:25.457Z,99554.84
2018-12-08T05:20:56.607Z,99559.13
2018-12-08T05:21:27.711Z,99562.50
2018-12-08T05:21:58.822Z,99566.30
2018-12-08T05:22:29.918Z,99559.89
2018-12-08T05:23:01.024Z,99563.75
2018-12-08T05:23:32.146Z,99560.38
2018-12-08T05:24:03.260Z,99556.06
2018-12-08T05:24:34.379Z,99558.98
2018-12-08T05:25:05.503Z,99559.44
2018-12-08T05:25:36.608Z,99558.52
2018-12-08T05:26:07.744Z,99552.55
2018-12-08T05:26:38.858Z,99556.41
2018-12-08T05:27:09.956Z,99551.33
2018-12-08T05:27:41.065Z,99553.06
2018-12-08T05:28:12.185Z,99554.78
2018-12-08T05:28:43.317Z,99554.36
2018-12-08T05:29:14.438Z,99550.53
2018-12-08T05:29:45.576Z,99551.35
2018-12-08T05:30:16.710Z,99554.34
2018-12-08T05:30:47.834Z,99556.89
2018-12-08T05:31:18.950Z,99557.73
2018-12-08T05:31:50.070Z,99556.89
2018-12-08T05:32:21.201Z,99552.17
2018-12-08T05:32:52.316Z,99556.52
2018-12-08T05:33:23.428Z,99557.36
2018-12-08T05:33:54.535Z,99556.94
2018-12-08T05:34:25.646Z,99556.94
2018-12-08T05:34:56.796Z,99553.96
2018-12-08T05:35:27.913Z,99555.66
2018-12-08T05:35:59.033Z,99557.80
2018-12-08T05:36:30.143Z,99555.27
2018-12-08T05:37:01.290Z,99553.58
2018-12-08T05:37:32.414Z,99557.02
2018-12-08T05:38:03.533Z,99548.47
2018-12-08T05:38:34.635Z,99550.63
2018-12-08T05:39:05.757Z,99552.71
2018-12-08T05:39:36.867Z,99556.56
2018-12-08T05:40:14.654Z,99549.73
2018-12-08T05:40:45.830Z,99548.45
2018-12-08T05:41:17.026Z,99550.13
2018-12-08T05:41:48.197Z,99547.58
2018-12-08T05:42:19.333Z,99545.42
2018-12-08T05:42:50.786Z,99547.52
2018-12-08T05:43:21.945Z,99541.59
2018-12-08T05:43:53.099Z,99538.55
2018-12-08T05:44:24.204Z,99538.64
2018-12-08T05:44:55.312Z,99541.19
2018-12-08T05:45:26.424Z,99541.13
2018-12-08T05:45:57.576Z,99538.11
2018-12-08T05:46:28.694Z,99540.28
2018-12-08T05:46:59.809Z,99545.88
2018-12-08T05:47:30.916Z,99544.22
2018-12-08T05:48:02.044Z,99545.52
2018-12-08T05:48:33.151Z,99545.52
2018-12-08T05:49:04.262Z,99545.97
2018-12-08T05:49:35.386Z,99548.12
2018-12-08T05:50:06.502Z,99543.02
2018-12-08T05:50:37.639Z,99546.84
2018-12-08T05:51:09.061Z,99546.83
2018-12-08T05:51:40.184Z,99543.84
2018-12-08T05:52:11.434Z,99543.02
2018-12-08T05:52:42.619Z,99546.47
2018-12-08T05:53:13.742Z,99552.88
2018-12-08T05:53:44.850Z,99548.66
2018-12-08T05:54:16.465Z,99548.25
2018-12-08T05:54:47.573Z,99547.86
2018-12-08T05:55:18.685Z,99549.98
2018-12-08T05:55:49.800Z,99541.47
2018-12-08T05:56:20.911Z,99550.88
2018-12-08T05:56:52.026Z,99550.06
2018-12-08T05:57:23.149Z,99547.51
2018-12-08T05:57:54.297Z,99548.80
2018-12-08T05:58:25.402Z,99539.89
2018-12-08T05:58:56.511Z,99546.72
2018-12-08T05:59:27.615Z,99544.22
2018-12-08T05:59:58.767Z,99541.66
2018-12-08T06:00:29.894Z,99542.94
2018-12-08T06:01:00.996Z,99539.53
2018-12-08T06:01:32.099Z,99536.95
2018-12-08T06:02:03.215Z,99542.02
2018-12-08T06:02:34.326Z,99536.42
2018-12-08T06:03:05.475Z,99540.26
2018-12-08T06:03:36.595Z,99540.79
2018-12-08T06:04:07.704Z,99539.97
2018-12-08T06:04:38.830Z,99540.01
2018-12-08T06:05:10.118Z,99537.88
2018-12-08T06:05:41.234Z,99539.19